sensor_id;sensor_type;location;lat;lon;timestamp;P1;durP1;ratioP1;P2;durP2;ratioP2
29538;SDS011;16482;51.046;4.498;2024-02-23T00:01:45;1.13;;;0.40;;
29538;SDS011;16482;51.046;4.498;2024-02-23T00:04:14;1.00;;;0.45;;
29538;SDS011;16482;51.046;4.498;2024-02-23T00:06:49;1.58;;;0.55;;
29538;SDS011;16482;51.046;4.498;2024-02-23T00:09:15;1.38;;;0.60;;
29538;SDS011;16482;51.046;4.498;2024-02-23T00:11:52;1.80;;;0.60;;
29538;SDS011;16482;51.046;4.498;2024-02-23T00:14:18;0.60;;;0.40;;
29538;SDS011;16482;51.046;4.498;2024-02-23T00:16:47;1.27;;;0.65;;
29538;SDS011;16482;51.046;4.498;2024-02-23T00:19:16;1.05;;;0.50;;
29538;SDS011;16482;51.046;4.498;2024-02-23T00:21:53;0.80;;;0.40;;
29538;SDS011;16482;51.046;4.498;2024-02-23T00:24:29;1.40;;;0.63;;
29538;SDS011;16482;51.046;4.498;2024-02-23T00:27:06;1.30;;;0.60;;
29538;SDS011;16482;51.046;4.498;2024-02-23T00:29:42;1.85;;;0.65;;
29538;SDS011;16482;51.046;4.498;2024-02-23T00:32:12;1.13;;;0.50;;
29538;SDS011;16482;51.046;4.498;2024-02-23T00:34:49;1.67;;;0.70;;
29538;SDS011;16482;51.046;4.498;2024-02-23T00:37:25;1.02;;;0.57;;
29538;SDS011;16482;51.046;4.498;2024-02-23T00:40:04;1.00;;;0.50;;
29538;SDS011;16482;51.046;4.498;2024-02-23T00:42:41;1.50;;;0.70;;
29538;SDS011;16482;51.046;4.498;2024-02-23T00:45:17;1.10;;;0.50;;
29538;SDS011;16482;51.046;4.498;2024-02-23T00:47:53;1.83;;;0.80;;
29538;SDS011;16482;51.046;4.498;2024-02-23T00:50:22;1.33;;;0.70;;
29538;SDS011;16482;51.046;4.498;2024-02-23T00:52:59;1.60;;;0.60;;
29538;SDS011;16482;51.046;4.498;2024-02-23T00:55:34;1.75;;;0.60;;
29538;SDS011;16482;51.046;4.498;2024-02-23T00:58:11;1.10;;;0.60;;
29538;SDS011;16482;51.046;4.498;2024-02-23T01:00:47;1.50;;;0.70;;
29538;SDS011;16482;51.046;4.498;2024-02-23T01:03:22;1.33;;;0.80;;
29538;SDS011;16482;51.046;4.498;2024-02-23T01:05:58;2.05;;;0.60;;
29538;SDS011;16482;51.046;4.498;2024-02-23T01:08:34;1.70;;;0.70;;
29538;SDS011;16482;51.046;4.498;2024-02-23T01:11:11;1.25;;;0.60;;
29538;SDS011;16482;51.046;4.498;2024-02-23T01:13:47;0.93;;;0.60;;
29538;SDS011;16482;51.046;4.498;2024-02-23T01:16:23;1.05;;;0.57;;
29538;SDS011;16482;51.046;4.498;2024-02-23T01:18:59;1.65;;;0.70;;
29538;SDS011;16482;51.046;4.498;2024-02-23T01:21:34;2.63;;;0.85;;
29538;SDS011;16482;51.046;4.498;2024-02-23T01:24:10;1.15;;;0.52;;
29538;SDS011;16482;51.046;4.498;2024-02-23T01:26:47;1.40;;;0.70;;
29538;SDS011;16482;51.046;4.498;2024-02-23T01:29:23;1.77;;;0.90;;
29538;SDS011;16482;51.046;4.498;2024-02-23T01:32:00;2.47;;;0.60;;
29538;SDS011;16482;51.046;4.498;2024-02-23T01:34:26;2.47;;;0.80;;
29538;SDS011;16482;51.046;4.498;2024-02-23T01:37:01;2.00;;;0.90;;
29538;SDS011;16482;51.046;4.498;2024-02-23T01:39:36;1.30;;;0.52;;
29538;SDS011;16482;51.046;4.498;2024-02-23T01:42:15;1.92;;;0.60;;
29538;SDS011;16482;51.046;4.498;2024-02-23T01:44:51;1.38;;;0.68;;
29538;SDS011;16482;51.046;4.498;2024-02-23T01:47:27;1.88;;;0.70;;
29538;SDS011;16482;51.046;4.498;2024-02-23T01:50:05;2.20;;;1.00;;
29538;SDS011;16482;51.046;4.498;2024-02-23T01:55:08;1.88;;;0.68;;
29538;SDS011;16482;51.046;4.498;2024-02-23T01:57:45;1.88;;;0.80;;
29538;SDS011;16482;51.046;4.498;2024-02-23T02:00:21;1.52;;;0.70;;
29538;SDS011;16482;51.046;4.498;2024-02-23T02:02:58;2.10;;;0.70;;
29538;SDS011;16482;51.046;4.498;2024-02-23T02:05:35;1.30;;;0.85;;
29538;SDS011;16482;51.046;4.498;2024-02-23T02:08:12;1.08;;;0.65;;
29538;SDS011;16482;51.046;4.498;2024-02-23T02:10:38;2.40;;;1.05;;
29538;SDS011;16482;51.046;4.498;2024-02-23T02:13:14;1.95;;;0.90;;
29538;SDS011;16482;51.046;4.498;2024-02-23T02:15:51;1.73;;;0.82;;
29538;SDS011;16482;51.046;4.498;2024-02-23T02:18:26;1.55;;;0.75;;
29538;SDS011;16482;51.046;4.498;2024-02-23T02:21:02;1.25;;;0.68;;
29538;SDS011;16482;51.046;4.498;2024-02-23T02:23:38;1.67;;;0.70;;
29538;SDS011;16482;51.046;4.498;2024-02-23T02:26:14;1.77;;;0.75;;
29538;SDS011;16482;51.046;4.498;2024-02-23T02:28:53;1.58;;;0.82;;
29538;SDS011;16482;51.046;4.498;2024-02-23T02:31:29;1.50;;;0.85;;
29538;SDS011;16482;51.046;4.498;2024-02-23T02:34:07;2.75;;;1.00;;
29538;SDS011;16482;51.046;4.498;2024-02-23T02:36:34;2.72;;;1.00;;
29538;SDS011;16482;51.046;4.498;2024-02-23T02:39:10;1.80;;;0.98;;
29538;SDS011;16482;51.046;4.498;2024-02-23T02:41:49;1.55;;;0.80;;
29538;SDS011;16482;51.046;4.498;2024-02-23T02:44:23;1.80;;;0.80;;
29538;SDS011;16482;51.046;4.498;2024-02-23T02:46:59;0.95;;;0.68;;
29538;SDS011;16482;51.046;4.498;2024-02-23T02:49:35;2.78;;;1.02;;
29538;SDS011;16482;51.046;4.498;2024-02-23T02:52:01;2.55;;;0.90;;
29538;SDS011;16482;51.046;4.498;2024-02-23T02:54:45;1.65;;;0.70;;
29538;SDS011;16482;51.046;4.498;2024-02-23T02:57:21;1.95;;;0.70;;
29538;SDS011;16482;51.046;4.498;2024-02-23T02:59:57;3.25;;;0.90;;
29538;SDS011;16482;51.046;4.498;2024-02-23T03:02:33;2.22;;;0.80;;
29538;SDS011;16482;51.046;4.498;2024-02-23T03:05:13;2.58;;;1.00;;
29538;SDS011;16482;51.046;4.498;2024-02-23T03:07:49;2.42;;;1.00;;
29538;SDS011;16482;51.046;4.498;2024-02-23T03:10:25;2.55;;;1.00;;
29538;SDS011;16482;51.046;4.498;2024-02-23T03:13:04;2.17;;;0.90;;
29538;SDS011;16482;51.046;4.498;2024-02-23T03:15:37;2.58;;;0.88;;
29538;SDS011;16482;51.046;4.498;2024-02-23T03:18:03;2.28;;;0.82;;
29538;SDS011;16482;51.046;4.498;2024-02-23T03:20:40;1.60;;;0.73;;
29538;SDS011;16482;51.046;4.498;2024-02-23T03:23:17;2.85;;;0.98;;
29538;SDS011;16482;51.046;4.498;2024-02-23T03:25:53;2.45;;;0.90;;
29538;SDS011;16482;51.046;4.498;2024-02-23T03:28:30;2.90;;;1.00;;
29538;SDS011;16482;51.046;4.498;2024-02-23T03:30:55;1.95;;;0.80;;
29538;SDS011;16482;51.046;4.498;2024-02-23T03:33:34;2.05;;;0.75;;
29538;SDS011;16482;51.046;4.498;2024-02-23T03:40:59;2.97;;;0.93;;
29538;SDS011;16482;51.046;4.498;2024-02-23T03:43:27;2.70;;;1.30;;
29538;SDS011;16482;51.046;4.498;2024-02-23T03:46:03;2.38;;;0.80;;
29538;SDS011;16482;51.046;4.498;2024-02-23T03:48:31;2.08;;;0.90;;
29538;SDS011;16482;51.046;4.498;2024-02-23T03:51:08;1.95;;;1.10;;
29538;SDS011;16482;51.046;4.498;2024-02-23T03:53:45;2.33;;;1.27;;
29538;SDS011;16482;51.046;4.498;2024-02-23T03:56:23;2.35;;;1.00;;
29538;SDS011;16482;51.046;4.498;2024-02-23T03:58:59;2.22;;;0.73;;
29538;SDS011;16482;51.046;4.498;2024-02-23T04:01:36;3.75;;;1.00;;
29538;SDS011;16482;51.046;4.498;2024-02-23T04:04:06;2.22;;;0.90;;
29538;SDS011;16482;51.046;4.498;2024-02-23T04:06:42;2.40;;;0.80;;
29538;SDS011;16482;51.046;4.498;2024-02-23T04:09:18;3.55;;;1.20;;
29538;SDS011;16482;51.046;4.498;2024-02-23T04:11:54;3.25;;;1.05;;
29538;SDS011;16482;51.046;4.498;2024-02-23T04:14:30;2.00;;;0.88;;
29538;SDS011;16482;51.046;4.498;2024-02-23T04:17:05;3.30;;;1.15;;
29538;SDS011;16482;51.046;4.498;2024-02-23T04:19:44;3.00;;;1.00;;
29538;SDS011;16482;51.046;4.498;2024-02-23T04:22:13;3.13;;;1.20;;
29538;SDS011;16482;51.046;4.498;2024-02-23T04:24:52;3.35;;;1.40;;
29538;SDS011;16482;51.046;4.498;2024-02-23T04:27:21;2.70;;;1.15;;
29538;SDS011;16482;51.046;4.498;2024-02-23T04:29:57;4.10;;;1.20;;
29538;SDS011;16482;51.046;4.498;2024-02-23T04:32:33;3.92;;;1.15;;
29538;SDS011;16482;51.046;4.498;2024-02-23T04:35:09;2.90;;;0.98;;
29538;SDS011;16482;51.046;4.498;2024-02-23T04:37:38;3.42;;;1.25;;
29538;SDS011;16482;51.046;4.498;2024-02-23T04:40:14;2.15;;;1.00;;
29538;SDS011;16482;51.046;4.498;2024-02-23T04:42:50;2.25;;;1.05;;
29538;SDS011;16482;51.046;4.498;2024-02-23T04:45:16;2.45;;;0.93;;
29538;SDS011;16482;51.046;4.498;2024-02-23T04:47:42;2.42;;;0.90;;
29538;SDS011;16482;51.046;4.498;2024-02-23T04:50:17;1.80;;;0.95;;
29538;SDS011;16482;51.046;4.498;2024-02-23T04:52:53;3.35;;;1.15;;
29538;SDS011;16482;51.046;4.498;2024-02-23T04:55:29;2.55;;;1.00;;
29538;SDS011;16482;51.046;4.498;2024-02-23T04:58:08;1.88;;;0.88;;
29538;SDS011;16482;51.046;4.498;2024-02-23T05:00:37;3.05;;;1.13;;
29538;SDS011;16482;51.046;4.498;2024-02-23T05:03:07;4.97;;;1.17;;
29538;SDS011;16482;51.046;4.498;2024-02-23T05:05:43;2.22;;;1.00;;
29538;SDS011;16482;51.046;4.498;2024-02-23T05:08:20;2.80;;;1.10;;
29538;SDS011;16482;51.046;4.498;2024-02-23T05:10:57;2.38;;;1.00;;
29538;SDS011;16482;51.046;4.498;2024-02-23T05:13:30;2.08;;;0.82;;
29538;SDS011;16482;51.046;4.498;2024-02-23T05:16:07;3.65;;;1.13;;
29538;SDS011;16482;51.046;4.498;2024-02-23T05:18:43;2.10;;;0.95;;
29538;SDS011;16482;51.046;4.498;2024-02-23T05:21:19;2.58;;;1.20;;
29538;SDS011;16482;51.046;4.498;2024-02-23T05:23:59;3.15;;;1.08;;
29538;SDS011;16482;51.046;4.498;2024-02-23T05:26:35;2.72;;;1.15;;
29538;SDS011;16482;51.046;4.498;2024-02-23T05:29:11;1.88;;;1.10;;
29538;SDS011;16482;51.046;4.498;2024-02-23T05:32:02;2.45;;;1.00;;
29538;SDS011;16482;51.046;4.498;2024-02-23T05:34:46;3.38;;;1.35;;
29538;SDS011;16482;51.046;4.498;2024-02-23T05:37:22;3.47;;;1.48;;
29538;SDS011;16482;51.046;4.498;2024-02-23T05:39:58;2.67;;;0.90;;
29538;SDS011;16482;51.046;4.498;2024-02-23T05:42:31;4.35;;;1.33;;
29538;SDS011;16482;51.046;4.498;2024-02-23T05:45:06;3.65;;;1.30;;
29538;SDS011;16482;51.046;4.498;2024-02-23T05:47:46;2.47;;;1.08;;
29538;SDS011;16482;51.046;4.498;2024-02-23T05:50:22;2.58;;;1.15;;
29538;SDS011;16482;51.046;4.498;2024-02-23T05:52:55;2.25;;;1.00;;
29538;SDS011;16482;51.046;4.498;2024-02-23T05:55:33;2.75;;;1.02;;
29538;SDS011;16482;51.046;4.498;2024-02-23T05:58:10;1.60;;;0.80;;
29538;SDS011;16482;51.046;4.498;2024-02-23T06:00:46;1.98;;;1.08;;
29538;SDS011;16482;51.046;4.498;2024-02-23T06:03:14;2.05;;;0.93;;
29538;SDS011;16482;51.046;4.498;2024-02-23T06:05:51;2.08;;;0.95;;
29538;SDS011;16482;51.046;4.498;2024-02-23T06:08:19;3.40;;;1.10;;
29538;SDS011;16482;51.046;4.498;2024-02-23T06:10:48;3.03;;;1.15;;
29538;SDS011;16482;51.046;4.498;2024-02-23T06:13:24;2.13;;;1.02;;
29538;SDS011;16482;51.046;4.498;2024-02-23T06:15:58;3.28;;;1.23;;
29538;SDS011;16482;51.046;4.498;2024-02-23T06:18:34;2.70;;;1.33;;
29538;SDS011;16482;51.046;4.498;2024-02-23T06:21:01;2.83;;;1.05;;
29538;SDS011;16482;51.046;4.498;2024-02-23T06:23:27;3.95;;;0.98;;
29538;SDS011;16482;51.046;4.498;2024-02-23T06:25:54;2.35;;;1.20;;
29538;SDS011;16482;51.046;4.498;2024-02-23T06:28:30;2.80;;;1.20;;
29538;SDS011;16482;51.046;4.498;2024-02-23T06:31:06;3.10;;;1.05;;
29538;SDS011;16482;51.046;4.498;2024-02-23T06:33:43;1.88;;;1.00;;
29538;SDS011;16482;51.046;4.498;2024-02-23T06:36:19;2.20;;;1.17;;
29538;SDS011;16482;51.046;4.498;2024-02-23T06:41:28;1.67;;;1.00;;
29538;SDS011;16482;51.046;4.498;2024-02-23T06:44:04;2.53;;;1.00;;
29538;SDS011;16482;51.046;4.498;2024-02-23T06:46:40;3.97;;;1.50;;
29538;SDS011;16482;51.046;4.498;2024-02-23T06:49:06;2.90;;;1.27;;
29538;SDS011;16482;51.046;4.498;2024-02-23T06:51:34;2.47;;;1.00;;
29538;SDS011;16482;51.046;4.498;2024-02-23T06:54:03;2.72;;;1.30;;
29538;SDS011;16482;51.046;4.498;2024-02-23T06:56:39;3.00;;;1.00;;
29538;SDS011;16482;51.046;4.498;2024-02-23T06:59:15;1.80;;;0.88;;
29538;SDS011;16482;51.046;4.498;2024-02-23T07:01:48;2.70;;;1.10;;
29538;SDS011;16482;51.046;4.498;2024-02-23T07:04:25;4.13;;;1.13;;
29538;SDS011;16482;51.046;4.498;2024-02-23T07:07:01;3.08;;;1.20;;
29538;SDS011;16482;51.046;4.498;2024-02-23T07:09:32;3.30;;;1.20;;
29538;SDS011;16482;51.046;4.498;2024-02-23T07:12:09;3.53;;;1.40;;
29538;SDS011;16482;51.046;4.498;2024-02-23T07:14:45;2.35;;;1.00;;
29538;SDS011;16482;51.046;4.498;2024-02-23T07:17:16;2.80;;;1.23;;
29538;SDS011;16482;51.046;4.498;2024-02-23T07:19:53;4.20;;;1.27;;
29538;SDS011;16482;51.046;4.498;2024-02-23T07:22:28;2.45;;;1.13;;
29538;SDS011;16482;51.046;4.498;2024-02-23T07:24:56;2.97;;;1.48;;
29538;SDS011;16482;51.046;4.498;2024-02-23T07:27:22;2.33;;;1.10;;
29538;SDS011;16482;51.046;4.498;2024-02-23T07:29:51;3.50;;;1.17;;
29538;SDS011;16482;51.046;4.498;2024-02-23T07:32:26;4.30;;;1.48;;
29538;SDS011;16482;51.046;4.498;2024-02-23T07:35:02;3.10;;;1.10;;
29538;SDS011;16482;51.046;4.498;2024-02-23T07:37:39;1.80;;;1.20;;
29538;SDS011;16482;51.046;4.498;2024-02-23T07:40:05;3.10;;;1.30;;
29538;SDS011;16482;51.046;4.498;2024-02-23T07:42:31;3.85;;;1.20;;
29538;SDS011;16482;51.046;4.498;2024-02-23T07:45:08;2.33;;;1.02;;
29538;SDS011;16482;51.046;4.498;2024-02-23T07:47:45;2.65;;;1.30;;
29538;SDS011;16482;51.046;4.498;2024-02-23T07:50:13;3.15;;;1.35;;
29538;SDS011;16482;51.046;4.498;2024-02-23T07:52:49;3.05;;;1.05;;
29538;SDS011;16482;51.046;4.498;2024-02-23T07:55:15;3.10;;;1.25;;
29538;SDS011;16482;51.046;4.498;2024-02-23T07:57:51;3.28;;;1.40;;
29538;SDS011;16482;51.046;4.498;2024-02-23T08:00:28;3.65;;;1.30;;
29538;SDS011;16482;51.046;4.498;2024-02-23T08:03:04;3.97;;;1.30;;
29538;SDS011;16482;51.046;4.498;2024-02-23T08:05:33;4.07;;;1.50;;
29538;SDS011;16482;51.046;4.498;2024-02-23T08:08:02;3.42;;;1.35;;
29538;SDS011;16482;51.046;4.498;2024-02-23T08:10:33;3.28;;;1.33;;
29538;SDS011;16482;51.046;4.498;2024-02-23T08:13:04;4.18;;;1.40;;
29538;SDS011;16482;51.046;4.498;2024-02-23T08:15:33;4.00;;;1.42;;
29538;SDS011;16482;51.046;4.498;2024-02-23T08:18:12;3.22;;;1.27;;
29538;SDS011;16482;51.046;4.498;2024-02-23T08:20:48;3.88;;;1.38;;
29538;SDS011;16482;51.046;4.498;2024-02-23T08:23:17;5.07;;;1.38;;
29538;SDS011;16482;51.046;4.498;2024-02-23T08:25:45;2.90;;;1.02;;
29538;SDS011;16482;51.046;4.498;2024-02-23T08:28:12;2.33;;;1.05;;
29538;SDS011;16482;51.046;4.498;2024-02-23T08:30:45;2.97;;;1.20;;
29538;SDS011;16482;51.046;4.498;2024-02-23T08:33:11;4.22;;;1.38;;
29538;SDS011;16482;51.046;4.498;2024-02-23T08:35:37;3.83;;;1.25;;
29538;SDS011;16482;51.046;4.498;2024-02-23T08:38:13;5.85;;;1.42;;
29538;SDS011;16482;51.046;4.498;2024-02-23T08:40:49;5.20;;;1.60;;
29538;SDS011;16482;51.046;4.498;2024-02-23T08:43:26;2.40;;;1.02;;
29538;SDS011;16482;51.046;4.498;2024-02-23T08:46:02;3.35;;;1.40;;
29538;SDS011;16482;51.046;4.498;2024-02-23T08:48:38;2.13;;;1.10;;
29538;SDS011;16482;51.046;4.498;2024-02-23T08:51:14;3.13;;;1.15;;
29538;SDS011;16482;51.046;4.498;2024-02-23T08:53:58;2.25;;;1.10;;
29538;SDS011;16482;51.046;4.498;2024-02-23T08:56:38;2.47;;;1.00;;
29538;SDS011;16482;51.046;4.498;2024-02-23T08:59:15;1.55;;;0.90;;
29538;SDS011;16482;51.046;4.498;2024-02-23T09:01:41;2.35;;;1.10;;
29538;SDS011;16482;51.046;4.498;2024-02-23T09:04:17;2.30;;;1.27;;
29538;SDS011;16482;51.046;4.498;2024-02-23T09:06:43;3.17;;;1.17;;
29538;SDS011;16482;51.046;4.498;2024-02-23T09:09:19;2.80;;;1.35;;
29538;SDS011;16482;51.046;4.498;2024-02-23T09:11:55;4.40;;;1.10;;
29538;SDS011;16482;51.046;4.498;2024-02-23T09:14:32;3.28;;;0.98;;
29538;SDS011;16482;51.046;4.498;2024-02-23T09:17:08;3.63;;;1.38;;
29538;SDS011;16482;51.046;4.498;2024-02-23T09:19:44;2.45;;;1.15;;
29538;SDS011;16482;51.046;4.498;2024-02-23T09:22:13;3.38;;;1.30;;
29538;SDS011;16482;51.046;4.498;2024-02-23T09:24:49;3.33;;;1.25;;
29538;SDS011;16482;51.046;4.498;2024-02-23T09:27:25;2.88;;;0.90;;
29538;SDS011;16482;51.046;4.498;2024-02-23T09:30:02;2.00;;;0.90;;
29538;SDS011;16482;51.046;4.498;2024-02-23T09:32:35;2.22;;;1.10;;
29538;SDS011;16482;51.046;4.498;2024-02-23T09:35:10;2.13;;;0.88;;
29538;SDS011;16482;51.046;4.498;2024-02-23T09:37:39;3.30;;;1.20;;
29538;SDS011;16482;51.046;4.498;2024-02-23T09:40:15;2.08;;;1.00;;
29538;SDS011;16482;51.046;4.498;2024-02-23T09:43:13;2.88;;;1.17;;
29538;SDS011;16482;51.046;4.498;2024-02-23T09:45:39;3.58;;;1.23;;
29538;SDS011;16482;51.046;4.498;2024-02-23T09:48:05;2.78;;;1.00;;
29538;SDS011;16482;51.046;4.498;2024-02-23T09:50:44;2.58;;;1.13;;
29538;SDS011;16482;51.046;4.498;2024-02-23T09:53:21;2.55;;;1.15;;
29538;SDS011;16482;51.046;4.498;2024-02-23T09:55:58;2.58;;;1.00;;
29538;SDS011;16482;51.046;4.498;2024-02-23T09:58:39;2.58;;;1.25;;
29538;SDS011;16482;51.046;4.498;2024-02-23T10:01:19;2.90;;;1.20;;
29538;SDS011;16482;51.046;4.498;2024-02-23T10:03:59;2.08;;;1.13;;
29538;SDS011;16482;51.046;4.498;2024-02-23T10:06:36;2.08;;;1.13;;
29538;SDS011;16482;51.046;4.498;2024-02-23T10:09:02;3.58;;;1.35;;
29538;SDS011;16482;51.046;4.498;2024-02-23T10:11:39;3.30;;;1.42;;
29538;SDS011;16482;51.046;4.498;2024-02-23T10:14:15;1.73;;;0.90;;
29538;SDS011;16482;51.046;4.498;2024-02-23T10:16:44;3.05;;;1.40;;
29538;SDS011;16482;51.046;4.498;2024-02-23T10:19:21;1.95;;;1.20;;
29538;SDS011;16482;51.046;4.498;2024-02-23T10:21:57;2.50;;;1.13;;
29538;SDS011;16482;51.046;4.498;2024-02-23T10:24:25;3.67;;;1.23;;
29538;SDS011;16482;51.046;4.498;2024-02-23T10:27:02;3.38;;;1.38;;
29538;SDS011;16482;51.046;4.498;2024-02-23T10:29:38;3.67;;;1.40;;
29538;SDS011;16482;51.046;4.498;2024-02-23T10:32:16;4.07;;;1.60;;
29538;SDS011;16482;51.046;4.498;2024-02-23T10:34:45;4.80;;;1.55;;
29538;SDS011;16482;51.046;4.498;2024-02-23T10:37:24;2.10;;;1.15;;
29538;SDS011;16482;51.046;4.498;2024-02-23T10:40:01;2.72;;;1.05;;
29538;SDS011;16482;51.046;4.498;2024-02-23T10:42:38;3.10;;;1.20;;
29538;SDS011;16482;51.046;4.498;2024-02-23T10:45:16;2.92;;;1.17;;
29538;SDS011;16482;51.046;4.498;2024-02-23T10:47:53;3.90;;;1.50;;
29538;SDS011;16482;51.046;4.498;2024-02-23T10:50:39;1.73;;;0.90;;
29538;SDS011;16482;51.046;4.498;2024-02-23T10:53:16;2.33;;;1.03;;
29538;SDS011;16482;51.046;4.498;2024-02-23T10:55:46;2.05;;;1.10;;
29538;SDS011;16482;51.046;4.498;2024-02-23T10:58:22;4.03;;;1.35;;
29538;SDS011;16482;51.046;4.498;2024-02-23T11:01:01;3.13;;;1.20;;
29538;SDS011;16482;51.046;4.498;2024-02-23T11:03:41;3.35;;;1.35;;
29538;SDS011;16482;51.046;4.498;2024-02-23T11:06:11;3.28;;;1.13;;
29538;SDS011;16482;51.046;4.498;2024-02-23T11:08:47;4.00;;;1.30;;
29538;SDS011;16482;51.046;4.498;2024-02-23T11:11:16;2.63;;;0.90;;
29538;SDS011;16482;51.046;4.498;2024-02-23T11:13:55;2.58;;;0.93;;
29538;SDS011;16482;51.046;4.498;2024-02-23T11:16:32;3.08;;;1.30;;
29538;SDS011;16482;51.046;4.498;2024-02-23T11:19:05;2.15;;;1.02;;
29538;SDS011;16482;51.046;4.498;2024-02-23T11:21:44;2.90;;;1.30;;
29538;SDS011;16482;51.046;4.498;2024-02-23T11:24:20;4.05;;;1.33;;
29538;SDS011;16482;51.046;4.498;2024-02-23T11:26:50;4.30;;;1.52;;
29538;SDS011;16482;51.046;4.498;2024-02-23T11:29:22;2.45;;;1.08;;
29538;SDS011;16482;51.046;4.498;2024-02-23T11:32:11;3.47;;;1.33;;
29538;SDS011;16482;51.046;4.498;2024-02-23T11:34:54;2.92;;;1.10;;
29538;SDS011;16482;51.046;4.498;2024-02-23T11:37:46;1.67;;;1.05;;
29538;SDS011;16482;51.046;4.498;2024-02-23T11:40:24;3.13;;;1.10;;
29538;SDS011;16482;51.046;4.498;2024-02-23T11:42:56;2.95;;;1.00;;
29538;SDS011;16482;51.046;4.498;2024-02-23T11:45:35;2.45;;;1.00;;
29538;SDS011;16482;51.046;4.498;2024-02-23T11:48:11;2.92;;;1.20;;
29538;SDS011;16482;51.046;4.498;2024-02-23T11:50:37;5.30;;;1.30;;
29538;SDS011;16482;51.046;4.498;2024-02-23T11:53:13;3.55;;;1.30;;
29538;SDS011;16482;51.046;4.498;2024-02-23T11:55:50;3.85;;;1.23;;
29538;SDS011;16482;51.046;4.498;2024-02-23T11:58:28;1.90;;;0.77;;
29538;SDS011;16482;51.046;4.498;2024-02-23T12:01:04;3.80;;;1.50;;
29538;SDS011;16482;51.046;4.498;2024-02-23T12:03:33;2.22;;;1.13;;
29538;SDS011;16482;51.046;4.498;2024-02-23T12:06:07;2.63;;;1.20;;
29538;SDS011;16482;51.046;4.498;2024-02-23T12:08:43;4.25;;;1.30;;
29538;SDS011;16482;51.046;4.498;2024-02-23T12:11:20;3.03;;;1.20;;
29538;SDS011;16482;51.046;4.498;2024-02-23T12:13:53;3.92;;;1.17;;
29538;SDS011;16482;51.046;4.498;2024-02-23T12:16:27;2.50;;;1.08;;
29538;SDS011;16482;51.046;4.498;2024-02-23T12:18:55;4.15;;;1.30;;
29538;SDS011;16482;51.046;4.498;2024-02-23T12:21:24;3.13;;;1.00;;
29538;SDS011;16482;51.046;4.498;2024-02-23T12:24:03;2.67;;;1.10;;
29538;SDS011;16482;51.046;4.498;2024-02-23T12:26:43;2.30;;;0.93;;
29538;SDS011;16482;51.046;4.498;2024-02-23T12:29:12;2.50;;;0.93;;
29538;SDS011;16482;51.046;4.498;2024-02-23T12:31:47;2.40;;;1.20;;
29538;SDS011;16482;51.046;4.498;2024-02-23T12:34:22;3.45;;;1.20;;
29538;SDS011;16482;51.046;4.498;2024-02-23T12:37:02;3.38;;;1.00;;
29538;SDS011;16482;51.046;4.498;2024-02-23T12:39:39;2.33;;;1.08;;
29538;SDS011;16482;51.046;4.498;2024-02-23T12:42:15;3.03;;;1.02;;
29538;SDS011;16482;51.046;4.498;2024-02-23T12:44:51;3.78;;;1.10;;
29538;SDS011;16482;51.046;4.498;2024-02-23T12:47:20;2.40;;;1.02;;
29538;SDS011;16482;51.046;4.498;2024-02-23T12:49:56;4.10;;;1.20;;
29538;SDS011;16482;51.046;4.498;2024-02-23T12:52:25;3.22;;;1.10;;
29538;SDS011;16482;51.046;4.498;2024-02-23T12:54:51;3.40;;;1.10;;
29538;SDS011;16482;51.046;4.498;2024-02-23T12:57:17;2.58;;;1.27;;
29538;SDS011;16482;51.046;4.498;2024-02-23T12:59:53;3.53;;;1.23;;
29538;SDS011;16482;51.046;4.498;2024-02-23T13:02:30;2.78;;;1.10;;
29538;SDS011;16482;51.046;4.498;2024-02-23T13:04:58;1.92;;;1.00;;
29538;SDS011;16482;51.046;4.498;2024-02-23T13:07:34;3.65;;;1.13;;
29538;SDS011;16482;51.046;4.498;2024-02-23T13:10:11;2.33;;;1.00;;
29538;SDS011;16482;51.046;4.498;2024-02-23T13:12:47;1.85;;;1.02;;
29538;SDS011;16482;51.046;4.498;2024-02-23T13:15:16;2.05;;;1.10;;
29538;SDS011;16482;51.046;4.498;2024-02-23T13:17:42;3.17;;;1.33;;
29538;SDS011;16482;51.046;4.498;2024-02-23T13:20:18;3.20;;;1.10;;
29538;SDS011;16482;51.046;4.498;2024-02-23T13:22:46;2.42;;;0.80;;
29538;SDS011;16482;51.046;4.498;2024-02-23T13:25:23;3.90;;;1.00;;
29538;SDS011;16482;51.046;4.498;2024-02-23T13:27:51;2.92;;;0.90;;
29538;SDS011;16482;51.046;4.498;2024-02-23T13:30:25;2.42;;;0.95;;
29538;SDS011;16482;51.046;4.498;2024-02-23T13:33:04;3.20;;;1.40;;
29538;SDS011;16482;51.046;4.498;2024-02-23T13:35:41;2.90;;;1.00;;
29538;SDS011;16482;51.046;4.498;2024-02-23T13:38:10;2.83;;;1.20;;
29538;SDS011;16482;51.046;4.498;2024-02-23T13:40:36;3.40;;;1.33;;
29538;SDS011;16482;51.046;4.498;2024-02-23T13:43:11;2.92;;;1.27;;
29538;SDS011;16482;51.046;4.498;2024-02-23T13:45:52;2.75;;;1.15;;
29538;SDS011;16482;51.046;4.498;2024-02-23T13:48:29;2.70;;;1.40;;
29538;SDS011;16482;51.046;4.498;2024-02-23T13:50:55;3.13;;;1.05;;
29538;SDS011;16482;51.046;4.498;2024-02-23T13:53:29;5.07;;;1.10;;
29538;SDS011;16482;51.046;4.498;2024-02-23T13:56:06;2.72;;;1.30;;
29538;SDS011;16482;51.046;4.498;2024-02-23T13:58:42;2.95;;;1.42;;
29538;SDS011;16482;51.046;4.498;2024-02-23T14:01:15;3.03;;;1.27;;
29538;SDS011;16482;51.046;4.498;2024-02-23T14:03:54;3.05;;;1.30;;
29538;SDS011;16482;51.046;4.498;2024-02-23T14:06:20;3.70;;;1.20;;
29538;SDS011;16482;51.046;4.498;2024-02-23T14:08:59;2.40;;;1.30;;
29538;SDS011;16482;51.046;4.498;2024-02-23T14:11:35;4.45;;;1.67;;
29538;SDS011;16482;51.046;4.498;2024-02-23T14:14:12;4.05;;;1.38;;
29538;SDS011;16482;51.046;4.498;2024-02-23T14:16:38;5.53;;;1.50;;
29538;SDS011;16482;51.046;4.498;2024-02-23T14:19:05;3.58;;;1.67;;
29538;SDS011;16482;51.046;4.498;2024-02-23T14:21:34;4.25;;;1.60;;
29538;SDS011;16482;51.046;4.498;2024-02-23T14:24:03;3.60;;;1.67;;
29538;SDS011;16482;51.046;4.498;2024-02-23T14:26:39;2.47;;;1.40;;
29538;SDS011;16482;51.046;4.498;2024-02-23T14:29:15;2.88;;;1.52;;
29538;SDS011;16482;51.046;4.498;2024-02-23T14:31:50;3.63;;;1.67;;
29538;SDS011;16482;51.046;4.498;2024-02-23T14:34:26;2.78;;;1.30;;
29538;SDS011;16482;51.046;4.498;2024-02-23T14:37:03;4.60;;;1.58;;
29538;SDS011;16482;51.046;4.498;2024-02-23T14:39:39;3.38;;;1.60;;
29538;SDS011;16482;51.046;4.498;2024-02-23T14:42:17;2.85;;;1.42;;
29538;SDS011;16482;51.046;4.498;2024-02-23T14:44:52;3.35;;;1.52;;
29538;SDS011;16482;51.046;4.498;2024-02-23T14:47:27;3.03;;;1.50;;
29538;SDS011;16482;51.046;4.498;2024-02-23T14:50:03;3.25;;;1.65;;
29538;SDS011;16482;51.046;4.498;2024-02-23T14:52:32;4.30;;;1.30;;
29538;SDS011;16482;51.046;4.498;2024-02-23T14:55:11;3.35;;;1.48;;
29538;SDS011;16482;51.046;4.498;2024-02-23T14:57:47;3.38;;;1.25;;
29538;SDS011;16482;51.046;4.498;2024-02-23T15:00:15;2.83;;;1.30;;
29538;SDS011;16482;51.046;4.498;2024-02-23T15:02:52;3.15;;;1.40;;
29538;SDS011;16482;51.046;4.498;2024-02-23T15:05:20;2.85;;;1.48;;
29538;SDS011;16482;51.046;4.498;2024-02-23T15:07:46;3.45;;;1.42;;
29538;SDS011;16482;51.046;4.498;2024-02-23T15:10:22;2.67;;;1.40;;
29538;SDS011;16482;51.046;4.498;2024-02-23T15:12:58;3.05;;;1.58;;
29538;SDS011;16482;51.046;4.498;2024-02-23T15:15:34;3.88;;;1.55;;
29538;SDS011;16482;51.046;4.498;2024-02-23T15:18:04;2.42;;;1.20;;
29538;SDS011;16482;51.046;4.498;2024-02-23T15:20:40;2.70;;;1.35;;
29538;SDS011;16482;51.046;4.498;2024-02-23T15:23:16;3.58;;;1.55;;
29538;SDS011;16482;51.046;4.498;2024-02-23T15:25:42;3.42;;;1.52;;
29538;SDS011;16482;51.046;4.498;2024-02-23T15:28:19;3.30;;;1.42;;
29538;SDS011;16482;51.046;4.498;2024-02-23T15:30:58;2.47;;;1.35;;
29538;SDS011;16482;51.046;4.498;2024-02-23T15:33:34;2.90;;;1.17;;
29538;SDS011;16482;51.046;4.498;2024-02-23T15:36:11;2.83;;;1.25;;
29538;SDS011;16482;51.046;4.498;2024-02-23T15:38:47;3.95;;;1.48;;
29538;SDS011;16482;51.046;4.498;2024-02-23T15:41:25;2.08;;;1.38;;